Waterloo, Iowa
Current Conditions -  °F | °C
As of 3:54 AM on Tuesday 21 Oct 2014 (Local Time) from KALO Reporting Station
Clear Clear  
Wind Chill: 35°   Ceiling: Unl
Heat Index: 35°   Visibility: 10mi
Dew Point: 33°   Wind: 3mph
Humidity: 92%   Direction: 330°NNW
Pressure: 30.1"   Gusts: NA
Location:  42.49°N, 92.34°W
Report Text: KALO 210854Z 33003KT 10SM CLR 02/01 A3010 RMK AO2 SLP196 T00170006 53014
Loading
Personal Weather Stations






























Interactive Weather Map
Tropical Storm Tracking
New forecast layout! Learn more

10-Day Weather Forecast

Advertisements
Track Severe Weather on mobile